createdAt,value
2022-12-24T00:01:29.616Z,10.30
2022-12-24T00:03:57.453Z,10.30
2022-12-24T00:06:25.250Z,10.20
2022-12-24T00:08:53.307Z,10.10
2022-12-24T00:11:22.634Z,10.10
2022-12-24T00:13:50.464Z,10.10
2022-12-24T00:16:18.375Z,10.10
2022-12-24T00:18:47.100Z,10.10
2022-12-24T00:21:15.778Z,10.00
2022-12-24T00:23:43.804Z,10.00
2022-12-24T00:26:12.090Z,10.00
2022-12-24T00:28:41.305Z,9.90
2022-12-24T00:31:10.139Z,9.90
2022-12-24T00:33:38.026Z,9.80
2022-12-24T00:36:06.826Z,9.80
2022-12-24T00:38:34.632Z,9.80
2022-12-24T00:41:02.745Z,9.70
2022-12-24T00:43:30.711Z,9.70
2022-12-24T00:46:00.708Z,9.70
2022-12-24T00:48:28.556Z,9.80
2022-12-24T00:50:56.447Z,9.70
2022-12-24T00:53:24.303Z,9.70
2022-12-24T00:55:52.365Z,9.70
2022-12-24T00:58:20.153Z,9.80
2022-12-24T01:00:47.961Z,9.90
2022-12-24T01:03:17.672Z,9.90
2022-12-24T01:05:44.676Z,9.80
2022-12-24T01:08:12.501Z,9.90
2022-12-24T01:10:40.370Z,9.90
2022-12-24T01:13:08.178Z,10.00
2022-12-24T01:15:37.883Z,10.10
2022-12-24T01:18:05.759Z,10.10
2022-12-24T01:20:34.896Z,10.20
2022-12-24T01:23:02.713Z,10.20
2022-12-24T01:25:30.513Z,10.20
2022-12-24T01:27:59.372Z,10.30
2022-12-24T01:30:27.190Z,10.20
2022-12-24T01:32:55.009Z,10.20
2022-12-24T01:35:22.839Z,10.20
2022-12-24T01:37:52.060Z,10.20
2022-12-24T01:40:38.626Z,10.20
2022-12-24T01:43:24.258Z,10.10
2022-12-24T01:45:52.607Z,10.20
2022-12-24T01:48:34.622Z,10.10
2022-12-24T01:51:05.082Z,10.10
2022-12-24T01:53:35.787Z,10.10
2022-12-24T01:56:04.435Z,10.10
2022-12-24T01:58:33.552Z,10.00
2022-12-24T02:01:01.415Z,10.10
2022-12-24T02:03:29.279Z,10.10
2022-12-24T02:05:59.109Z,10.10
2022-12-24T02:08:39.800Z,10.10
2022-12-24T02:11:16.755Z,10.00
2022-12-24T02:13:46.021Z,10.10
2022-12-24T02:16:16.887Z,10.00
2022-12-24T02:18:48.718Z,10.10
2022-12-24T02:21:34.150Z,10.10
2022-12-24T02:24:30.653Z,10.10
2022-12-24T02:27:08.858Z,10.00
2022-12-24T02:29:52.085Z,10.00
2022-12-24T02:32:23.763Z,10.00
2022-12-24T02:34:55.052Z,10.00
2022-12-24T02:37:24.204Z,9.90
2022-12-24T02:39:53.850Z,9.90
2022-12-24T02:42:26.817Z,9.90
2022-12-24T02:44:57.676Z,9.90
2022-12-24T02:47:27.677Z,9.90
2022-12-24T02:49:55.506Z,9.90
2022-12-24T02:52:30.083Z,9.90
2022-12-24T02:54:58.567Z,9.90
2022-12-24T02:57:29.887Z,9.90
2022-12-24T03:00:01.339Z,9.90
2022-12-24T03:02:36.473Z,9.90
2022-12-24T03:05:09.744Z,9.90
2022-12-24T03:07:39.725Z,9.90
2022-12-24T03:10:20.134Z,10.00
2022-12-24T03:12:49.860Z,10.00
2022-12-24T03:15:20.691Z,10.00
2022-12-24T03:17:50.340Z,9.90
2022-12-24T03:20:20.244Z,9.90
2022-12-24T03:22:48.086Z,9.90
2022-12-24T03:25:16.597Z,9.90
2022-12-24T03:27:44.808Z,9.90
2022-12-24T03:30:14.042Z,9.90
2022-12-24T03:32:43.238Z,9.80
2022-12-24T03:35:11.455Z,9.80
2022-12-24T03:37:39.296Z,9.80
2022-12-24T03:40:07.751Z,9.70
2022-12-24T03:42:35.571Z,9.70
2022-12-24T03:45:03.408Z,9.70
2022-12-24T03:47:32.051Z,9.70
2022-12-24T03:50:01.261Z,9.60
2022-12-24T03:52:29.318Z,9.60
2022-12-24T03:54:57.133Z,9.60
2022-12-24T03:57:25.477Z,9.60
2022-12-24T03:59:53.275Z,9.60
2022-12-24T04:02:21.267Z,9.60
2022-12-24T04:04:49.197Z,9.50
2022-12-24T04:07:18.329Z,9.50
2022-12-24T04:09:46.165Z,9.40
2022-12-24T04:12:14.072Z,9.40
2022-12-24T04:14:41.887Z,9.30
2022-12-24T04:17:09.752Z,9.30
2022-12-24T04:19:37.557Z,9.40
2022-12-24T04:22:05.358Z,9.40
2022-12-24T04:24:34.522Z,9.40
2022-12-24T04:27:02.425Z,9.40
2022-12-24T04:29:30.309Z,9.40
2022-12-24T04:31:58.190Z,9.50
2022-12-24T04:34:26.023Z,9.50
2022-12-24T04:36:53.818Z,9.50
2022-12-24T04:39:21.631Z,9.50
2022-12-24T04:41:50.773Z,9.40
2022-12-24T04:44:18.582Z,9.40
2022-12-24T04:46:46.372Z,9.30
2022-12-24T04:49:14.180Z,9.40
2022-12-24T04:51:42.004Z,9.40
2022-12-24T04:54:09.821Z,9.40
2022-12-24T04:56:37.782Z,9.40
2022-12-24T04:59:07.003Z,9.30
2022-12-24T05:01:34.921Z,9.30
2022-12-24T05:04:02.792Z,9.30
2022-12-24T05:06:31.472Z,9.30
2022-12-24T05:08:59.760Z,9.30
2022-12-24T05:11:27.870Z,9.10
2022-12-24T05:13:55.696Z,9.10
2022-12-24T05:16:25.722Z,9.10
2022-12-24T05:18:53.829Z,9.10
2022-12-24T05:21:22.673Z,9.10
2022-12-24T05:24:08.119Z,9.10
2022-12-24T05:26:37.052Z,9.10
2022-12-24T05:29:05.113Z,9.00
2022-12-24T05:31:36.005Z,9.00
2022-12-24T05:34:04.037Z,9.00
2022-12-24T05:36:31.945Z,8.90
2022-12-24T05:38:59.892Z,8.90
2022-12-24T05:41:27.917Z,8.90
2022-12-24T05:43:56.160Z,8.90
2022-12-24T05:46:24.654Z,8.90
2022-12-24T05:48:54.047Z,8.80
2022-12-24T05:51:23.147Z,8.70
2022-12-24T05:53:51.582Z,8.80
2022-12-24T05:56:20.574Z,8.70
2022-12-24T05:58:48.671Z,8.80
2022-12-24T06:01:17.098Z,8.70
2022-12-24T06:03:45.068Z,8.70
2022-12-24T06:06:15.707Z,8.70
2022-12-24T06:08:43.616Z,8.70
2022-12-24T06:11:12.526Z,8.60
2022-12-24T06:13:40.518Z,8.70
2022-12-24T06:16:09.456Z,8.70
2022-12-24T06:18:37.591Z,8.60
2022-12-24T06:21:06.361Z,8.60
2022-12-24T06:23:37.027Z,8.60
2022-12-24T06:26:05.727Z,8.60
2022-12-24T06:28:34.898Z,8.70
2022-12-24T06:31:03.960Z,8.70
2022-12-24T06:33:32.333Z,8.70
2022-12-24T06:36:00.295Z,8.60
2022-12-24T06:38:28.113Z,8.60
2022-12-24T06:40:57.323Z,8.60
2022-12-24T06:43:25.157Z,8.60
2022-12-24T06:45:53.605Z,8.50
2022-12-24T06:48:21.954Z,8.60
2022-12-24T06:50:49.758Z,8.60
2022-12-24T06:53:17.595Z,8.50
2022-12-24T06:55:45.400Z,8.50
2022-12-24T06:58:14.561Z,8.50
2022-12-24T07:00:42.393Z,8.50
2022-12-24T07:03:10.270Z,8.40
2022-12-24T07:05:38.087Z,8.40
2022-12-24T07:08:06.196Z,8.40
2022-12-24T07:10:34.923Z,8.40
2022-12-24T07:13:02.761Z,8.40
2022-12-24T07:15:31.972Z,8.40
2022-12-24T07:17:59.771Z,8.40
2022-12-24T07:20:27.562Z,8.40
2022-12-24T07:22:55.434Z,8.40
2022-12-24T07:25:23.235Z,8.40
2022-12-24T07:27:51.104Z,8.40
2022-12-24T07:30:19.017Z,8.40
2022-12-24T07:32:48.174Z,8.40
2022-12-24T07:35:16.058Z,8.50
2022-12-24T07:37:43.890Z,8.50
2022-12-24T07:40:11.924Z,8.60
2022-12-24T07:42:39.734Z,8.60
2022-12-24T07:45:08.225Z,8.60
2022-12-24T07:47:36.229Z,8.60
2022-12-24T07:50:05.852Z,8.60
2022-12-24T07:52:33.811Z,8.60
2022-12-24T07:55:01.677Z,8.70
2022-12-24T07:57:29.572Z,8.70
2022-12-24T07:59:57.389Z,8.70
2022-12-24T08:02:25.416Z,8.80
2022-12-24T08:04:53.320Z,8.80
2022-12-24T08:07:22.513Z,8.80
2022-12-24T08:09:50.340Z,8.80
2022-12-24T08:12:18.218Z,8.90
2022-12-24T08:14:46.078Z,8.90
2022-12-24T08:17:13.893Z,9.00
2022-12-24T08:19:41.737Z,9.00
2022-12-24T08:22:09.537Z,9.00
2022-12-24T08:24:38.673Z,9.00
2022-12-24T08:27:06.493Z,9.00
2022-12-24T08:29:34.351Z,9.00
2022-12-24T08:32:02.274Z,9.10
2022-12-24T08:34:30.216Z,9.10
2022-12-24T08:36:58.034Z,9.10
2022-12-24T08:39:26.187Z,9.10
2022-12-24T08:41:55.353Z,9.20
2022-12-24T08:44:23.135Z,9.20
2022-12-24T08:46:50.936Z,9.30
2022-12-24T08:49:18.764Z,9.30
2022-12-24T08:51:46.541Z,9.40
2022-12-24T08:54:14.304Z,9.60
2022-12-24T08:56:42.155Z,9.70
2022-12-24T08:59:11.787Z,9.80
2022-12-24T09:01:39.845Z,9.80
2022-12-24T09:04:07.762Z,9.80
2022-12-24T09:06:35.553Z,9.90
2022-12-24T09:09:03.395Z,10.00
2022-12-24T09:11:31.704Z,10.00
2022-12-24T09:13:59.482Z,10.00
2022-12-24T09:16:28.813Z,10.00
2022-12-24T09:18:57.620Z,10.10
2022-12-24T09:21:25.425Z,10.10
2022-12-24T09:23:53.211Z,10.10
2022-12-24T09:26:22.061Z,10.00
2022-12-24T09:28:50.309Z,10.00
2022-12-24T09:31:18.410Z,10.00
2022-12-24T09:33:48.399Z,10.00
2022-12-24T09:36:16.302Z,9.90
2022-12-24T09:38:44.153Z,9.90
2022-12-24T09:41:13.151Z,9.90
2022-12-24T09:43:41.294Z,9.90
2022-12-24T09:46:13.166Z,9.90
2022-12-24T09:48:42.794Z,9.90
2022-12-24T09:51:13.089Z,9.90
2022-12-24T09:53:42.196Z,10.00
2022-12-24T09:56:13.546Z,9.90
2022-12-24T09:58:43.060Z,10.00
2022-12-24T10:01:12.898Z,10.00
2022-12-24T10:03:41.070Z,10.00
2022-12-24T10:06:11.400Z,10.00
2022-12-24T10:08:46.989Z,10.00
2022-12-24T10:11:18.393Z,10.10
2022-12-24T10:13:51.761Z,10.00
2022-12-24T10:16:23.836Z,10.10
2022-12-24T10:18:56.546Z,10.10
2022-12-24T10:21:27.599Z,10.10
2022-12-24T10:24:00.464Z,10.10
2022-12-24T10:26:29.540Z,10.10
2022-12-24T10:28:58.841Z,10.10
2022-12-24T10:31:28.036Z,10.20
2022-12-24T10:33:57.986Z,10.10
2022-12-24T10:36:28.370Z,10.20
2022-12-24T10:38:57.938Z,10.20
2022-12-24T10:41:26.773Z,10.10
2022-12-24T10:43:55.263Z,10.10
2022-12-24T10:46:24.065Z,10.10
2022-12-24T10:48:53.878Z,10.10
2022-12-24T10:51:23.450Z,10.10
2022-12-24T10:53:53.089Z,10.00
2022-12-24T10:56:22.298Z,10.00
2022-12-24T10:58:52.696Z,10.00
2022-12-24T11:01:20.714Z,9.90
2022-12-24T11:04:00.781Z,9.90
2022-12-24T11:06:28.557Z,9.90
2022-12-24T11:09:13.055Z,9.90
2022-12-24T11:11:42.503Z,9.90
2022-12-24T11:14:15.343Z,9.90
2022-12-24T11:16:49.543Z,9.90
2022-12-24T11:19:19.127Z,9.90
2022-12-24T11:21:46.955Z,9.90
2022-12-24T11:24:23.331Z,9.90
2022-12-24T11:26:52.522Z,9.90
2022-12-24T11:29:21.883Z,9.80
2022-12-24T11:31:50.391Z,9.80
2022-12-24T11:34:19.660Z,9.70
2022-12-24T11:36:47.587Z,9.70
2022-12-24T11:39:19.714Z,9.70
2022-12-24T11:41:47.761Z,9.60
2022-12-24T11:44:17.006Z,9.70
2022-12-24T11:46:47.142Z,9.60
2022-12-24T11:49:17.189Z,9.50
2022-12-24T11:51:59.921Z,9.40
2022-12-24T11:54:29.594Z,9.30
2022-12-24T11:56:59.611Z,9.20
2022-12-24T11:59:31.520Z,9.10
2022-12-24T12:02:01.277Z,9.10
2022-12-24T12:04:30.724Z,9.00
2022-12-24T12:07:00.348Z,9.00
2022-12-24T12:09:31.367Z,9.00
2022-12-24T12:12:02.140Z,9.00
2022-12-24T12:14:33.037Z,9.00
2022-12-24T12:17:03.867Z,9.00
2022-12-24T12:19:36.825Z,8.90
2022-12-24T12:22:06.209Z,8.90
2022-12-24T12:24:35.745Z,8.90
2022-12-24T12:27:06.199Z,8.80
2022-12-24T12:29:37.308Z,8.80
2022-12-24T12:32:07.394Z,8.70
2022-12-24T12:34:39.064Z,8.70
2022-12-24T12:37:14.706Z,8.70
2022-12-24T12:39:43.389Z,8.70
2022-12-24T12:42:15.500Z,8.70
2022-12-24T12:45:00.275Z,8.80
2022-12-24T12:47:35.781Z,8.80
2022-12-24T12:50:08.617Z,8.90
2022-12-24T12:52:42.098Z,8.90
2022-12-24T12:55:24.350Z,8.90
2022-12-24T12:57:56.377Z,9.00
2022-12-24T13:00:25.598Z,9.10
2022-12-24T13:03:04.197Z,9.10
2022-12-24T13:05:59.278Z,9.20
2022-12-24T13:08:39.956Z,9.20
2022-12-24T13:11:14.540Z,9.30
2022-12-24T13:13:54.032Z,9.30
2022-12-24T13:16:32.198Z,9.40
2022-12-24T13:19:05.500Z,9.50
2022-12-24T13:21:34.089Z,9.60
2022-12-24T13:24:09.003Z,9.70
2022-12-24T13:26:36.785Z,9.60
2022-12-24T13:29:28.573Z,9.70
2022-12-24T13:32:18.869Z,9.70
2022-12-24T13:34:50.127Z,9.70
2022-12-24T13:37:21.716Z,9.80
2022-12-24T13:40:02.626Z,9.80
2022-12-24T13:42:50.946Z,9.70
2022-12-24T13:45:37.699Z,9.70
2022-12-24T13:48:15.062Z,9.60
2022-12-24T13:50:45.400Z,9.60
2022-12-24T13:53:22.337Z,9.50
2022-12-24T13:55:51.822Z,9.50
2022-12-24T13:58:21.671Z,9.40
2022-12-24T14:00:54.302Z,9.40
2022-12-24T14:03:25.234Z,9.40
2022-12-24T14:05:56.273Z,9.40
2022-12-24T14:08:29.117Z,9.30
2022-12-24T14:11:04.283Z,9.40
2022-12-24T14:13:46.993Z,9.40
2022-12-24T14:16:16.388Z,9.40
2022-12-24T14:18:45.170Z,9.30
2022-12-24T14:21:18.608Z,9.30
2022-12-24T14:23:52.348Z,9.30
2022-12-24T14:26:21.763Z,9.30
2022-12-24T14:28:54.909Z,9.30
2022-12-24T14:31:23.281Z,9.20
2022-12-24T14:33:51.190Z,9.20
2022-12-24T14:36:22.578Z,9.20
2022-12-24T14:38:50.816Z,9.20
2022-12-24T14:41:26.896Z,9.30
2022-12-24T14:43:58.170Z,9.30
2022-12-24T14:46:32.762Z,9.20
2022-12-24T14:49:05.539Z,9.30
2022-12-24T14:51:37.010Z,9.30
2022-12-24T14:54:27.039Z,9.20
2022-12-24T14:57:08.048Z,9.20
2022-12-24T14:59:41.447Z,9.20
2022-12-24T15:02:22.782Z,9.20
2022-12-24T15:05:03.454Z,9.20
2022-12-24T15:07:34.317Z,9.20
2022-12-24T15:10:02.998Z,9.10
2022-12-24T15:12:31.470Z,9.10
2022-12-24T15:14:59.368Z,9.10
2022-12-24T15:17:28.011Z,9.00
2022-12-24T15:19:58.148Z,9.00
2022-12-24T15:22:27.436Z,9.10
2022-12-24T15:24:56.725Z,9.10
2022-12-24T15:27:25.534Z,9.10
2022-12-24T15:29:53.924Z,9.10
2022-12-24T15:32:22.147Z,9.10
2022-12-24T15:34:51.217Z,9.00
2022-12-24T15:37:20.285Z,9.00
2022-12-24T15:39:54.218Z,9.00
2022-12-24T15:42:24.587Z,9.00
2022-12-24T15:44:58.611Z,9.00
2022-12-24T15:47:28.365Z,8.90
2022-12-24T15:49:56.527Z,8.90
2022-12-24T15:52:25.274Z,8.80
2022-12-24T15:54:58.179Z,8.80
2022-12-24T15:57:31.304Z,8.80
2022-12-24T15:59:59.963Z,8.80
2022-12-24T16:02:39.203Z,8.80
2022-12-24T16:05:34.279Z,8.90
2022-12-24T16:08:09.462Z,8.90
2022-12-24T16:10:39.917Z,8.80
2022-12-24T16:13:17.330Z,8.90
2022-12-24T16:15:49.662Z,8.90
2022-12-24T16:18:19.273Z,8.80
2022-12-24T16:20:48.636Z,8.70
2022-12-24T16:23:20.282Z,8.70
2022-12-24T16:25:48.091Z,8.60
2022-12-24T16:28:22.121Z,8.40
2022-12-24T16:30:51.035Z,8.40
2022-12-24T16:33:19.992Z,8.30
2022-12-24T16:35:48.103Z,8.30
2022-12-24T16:38:15.938Z,8.20
2022-12-24T16:40:44.133Z,8.20
2022-12-24T16:43:29.543Z,8.10
2022-12-24T16:46:01.433Z,8.10
2022-12-24T16:48:29.547Z,7.90
2022-12-24T16:50:57.611Z,7.80
2022-12-24T16:53:25.401Z,7.80
2022-12-24T16:55:53.431Z,7.70
2022-12-24T16:58:21.554Z,7.70
2022-12-24T17:00:49.375Z,7.60
2022-12-24T17:03:18.640Z,7.60
2022-12-24T17:05:46.529Z,7.60
2022-12-24T17:08:14.767Z,7.50
2022-12-24T17:10:50.462Z,7.50
2022-12-24T17:13:18.316Z,7.50
2022-12-24T17:15:46.201Z,7.50
2022-12-24T17:18:14.100Z,7.50
2022-12-24T17:20:43.267Z,7.50
2022-12-24T17:23:11.165Z,7.50
2022-12-24T17:25:38.967Z,7.60
2022-12-24T17:28:06.763Z,7.60
2022-12-24T17:30:34.575Z,7.60
2022-12-24T17:33:02.374Z,7.60
2022-12-24T17:35:30.231Z,7.60
2022-12-24T17:37:59.939Z,7.70
2022-12-24T17:40:27.715Z,7.70
2022-12-24T17:42:55.467Z,7.70
2022-12-24T17:45:23.268Z,7.70
2022-12-24T17:47:51.091Z,7.70
2022-12-24T17:50:18.920Z,7.70
2022-12-24T17:52:46.774Z,7.70
2022-12-24T17:55:16.011Z,7.70
2022-12-24T17:57:43.832Z,7.60
2022-12-24T18:00:12.191Z,7.60
2022-12-24T18:02:40.114Z,7.60
2022-12-24T18:05:08.278Z,7.70
2022-12-24T18:07:36.209Z,7.70
2022-12-24T18:10:04.699Z,7.60
2022-12-24T18:12:33.889Z,7.70
2022-12-24T18:15:01.700Z,7.60
2022-12-24T18:17:29.521Z,7.70
2022-12-24T18:19:57.335Z,7.80
2022-12-24T18:22:25.150Z,7.70
2022-12-24T18:24:52.981Z,7.80
2022-12-24T18:27:20.855Z,7.80
2022-12-24T18:29:50.247Z,7.90
2022-12-24T18:32:18.079Z,7.90
2022-12-24T18:34:45.877Z,7.90
2022-12-24T18:37:13.727Z,7.90
2022-12-24T18:39:41.535Z,7.90
2022-12-24T18:42:14.284Z,8.00
2022-12-24T18:44:42.143Z,8.20
2022-12-24T18:47:11.576Z,8.20
2022-12-24T18:49:39.432Z,8.20
2022-12-24T18:52:07.765Z,8.20
2022-12-24T18:54:35.647Z,8.10
2022-12-24T18:57:03.536Z,8.00
2022-12-24T18:59:31.386Z,8.00
2022-12-24T19:01:59.412Z,7.90
2022-12-24T19:04:28.794Z,7.80
2022-12-24T19:06:56.692Z,7.80
2022-12-24T19:09:24.506Z,7.90
2022-12-24T19:11:52.351Z,7.90
2022-12-24T19:14:20.853Z,7.90
2022-12-24T19:16:48.802Z,8.00
2022-12-24T19:19:18.732Z,8.00
2022-12-24T19:21:47.891Z,7.90
2022-12-24T19:24:15.761Z,7.90
2022-12-24T19:26:43.565Z,8.00
2022-12-24T19:29:11.353Z,8.00
2022-12-24T19:31:39.202Z,8.00
2022-12-24T19:34:07.129Z,8.00
2022-12-24T19:36:35.377Z,8.00
2022-12-24T19:39:04.649Z,8.10
2022-12-24T19:41:32.490Z,8.00
2022-12-24T19:44:02.993Z,8.10
2022-12-24T19:46:32.103Z,8.10
2022-12-24T19:49:00.592Z,8.00
2022-12-24T19:51:29.140Z,7.90
2022-12-24T19:53:57.588Z,8.00
2022-12-24T19:56:28.565Z,8.00
2022-12-24T19:58:57.266Z,8.00
2022-12-24T20:01:26.126Z,8.00
2022-12-24T20:03:54.516Z,7.90
2022-12-24T20:06:23.640Z,7.90
2022-12-24T20:08:51.497Z,7.80
2022-12-24T20:11:20.538Z,7.80
2022-12-24T20:13:49.815Z,7.80
2022-12-24T20:16:19.114Z,7.80
2022-12-24T20:18:51.427Z,7.70
2022-12-24T20:21:19.232Z,7.70
2022-12-24T20:23:47.071Z,7.70
2022-12-24T20:26:16.005Z,7.70
2022-12-24T20:28:44.210Z,7.70
2022-12-24T20:31:14.261Z,7.70
2022-12-24T20:33:42.609Z,7.70
2022-12-24T20:36:10.955Z,7.70
2022-12-24T20:38:38.777Z,7.70
2022-12-24T20:41:09.575Z,7.60
2022-12-24T20:43:45.124Z,7.60
2022-12-24T20:46:17.274Z,7.60
2022-12-24T20:48:45.276Z,7.60
2022-12-24T20:51:19.358Z,7.50
2022-12-24T20:53:51.438Z,7.50
2022-12-24T20:56:19.282Z,7.40
2022-12-24T20:58:47.111Z,7.40
2022-12-24T21:01:16.625Z,7.30
2022-12-24T21:03:46.295Z,7.20
2022-12-24T21:06:15.562Z,7.20
2022-12-24T21:08:43.707Z,7.20
2022-12-24T21:11:28.276Z,7.10
2022-12-24T21:13:56.088Z,7.00
2022-12-24T21:16:23.993Z,7.00
2022-12-24T21:18:53.344Z,7.00
2022-12-24T21:21:21.213Z,7.00
2022-12-24T21:23:49.036Z,7.10
2022-12-24T21:26:16.860Z,7.10
2022-12-24T21:28:45.423Z,7.10
2022-12-24T21:31:14.699Z,7.00
2022-12-24T21:33:42.587Z,7.00
2022-12-24T21:36:12.201Z,6.90
2022-12-24T21:38:40.092Z,6.90
2022-12-24T21:41:09.125Z,6.90
2022-12-24T21:43:37.398Z,6.90
2022-12-24T21:46:06.937Z,6.90
2022-12-24T21:48:52.339Z,6.90
2022-12-24T21:51:21.524Z,6.80
2022-12-24T21:54:06.874Z,6.80
2022-12-24T21:56:55.519Z,6.80
2022-12-24T21:59:26.596Z,6.70
2022-12-24T22:01:55.827Z,6.70
2022-12-24T22:04:24.142Z,6.70
2022-12-24T22:07:10.698Z,6.60
2022-12-24T22:09:56.318Z,6.70
2022-12-24T22:12:24.172Z,6.60
2022-12-24T22:14:51.992Z,6.60
2022-12-24T22:17:24.788Z,6.60
2022-12-24T22:19:53.547Z,6.60
2022-12-24T22:22:23.301Z,6.50
2022-12-24T22:24:51.124Z,6.60
2022-12-24T22:27:18.936Z,6.60
2022-12-24T22:29:46.788Z,6.60
2022-12-24T22:32:14.629Z,6.50
2022-12-24T22:34:42.476Z,6.50
2022-12-24T22:37:10.295Z,6.50
2022-12-24T22:39:40.048Z,6.50
2022-12-24T22:42:07.940Z,6.50
2022-12-24T22:44:35.763Z,6.40
2022-12-24T22:47:03.560Z,6.50
2022-12-24T22:49:31.485Z,6.50
2022-12-24T22:51:59.528Z,6.50
2022-12-24T22:54:27.326Z,6.50
2022-12-24T22:56:56.525Z,6.50
2022-12-24T22:59:24.320Z,6.40
2022-12-24T23:01:53.701Z,6.40
2022-12-24T23:04:21.684Z,6.40
2022-12-24T23:06:49.633Z,6.40
2022-12-24T23:09:17.882Z,6.40
2022-12-24T23:11:45.991Z,6.40
2022-12-24T23:14:34.658Z,6.50
2022-12-24T23:17:02.483Z,6.50
2022-12-24T23:19:31.856Z,6.50
2022-12-24T23:21:59.728Z,6.50
2022-12-24T23:24:27.705Z,6.40
2022-12-24T23:26:55.581Z,6.40
2022-12-24T23:29:25.813Z,6.40
2022-12-24T23:31:53.624Z,6.40
2022-12-24T23:34:21.397Z,6.30
2022-12-24T23:36:49.221Z,6.30
2022-12-24T23:39:17.079Z,6.30
2022-12-24T23:41:44.885Z,6.30
2022-12-24T23:44:12.783Z,6.30
2022-12-24T23:46:42.033Z,6.30
2022-12-24T23:49:12.642Z,6.30
2022-12-24T23:51:40.459Z,6.20
2022-12-24T23:54:08.246Z,6.30
2022-12-24T23:56:36.060Z,6.20
2022-12-24T23:59:03.981Z,6.20
